createdAt,value
2022-09-11T00:01:40.402Z,36.12
2022-09-11T00:04:08.069Z,36.56
2022-09-11T00:06:35.256Z,36.42
2022-09-11T00:09:03.457Z,36.38
2022-09-11T00:11:32.599Z,36.36
2022-09-11T00:13:59.917Z,36.48
2022-09-11T00:16:28.666Z,36.51
2022-09-11T00:18:56.495Z,36.88
2022-09-11T00:21:23.510Z,36.61
2022-09-11T00:23:50.540Z,36.80
2022-09-11T00:26:17.702Z,37.45
2022-09-11T00:28:45.357Z,36.91
2022-09-11T00:31:13.454Z,37.09
2022-09-11T00:33:42.069Z,37.58
2022-09-11T00:36:11.349Z,37.51
2022-09-11T00:38:38.529Z,37.78
2022-09-11T00:41:07.370Z,37.44
2022-09-11T00:43:53.649Z,37.50
2022-09-11T00:46:21.031Z,37.35
2022-09-11T00:48:50.995Z,37.73
2022-09-11T00:51:19.313Z,37.75
2022-09-11T00:53:46.795Z,37.68
2022-09-11T00:56:13.850Z,38.10
2022-09-11T00:58:42.786Z,37.95
2022-09-11T01:01:10.638Z,37.77
2022-09-11T01:03:37.872Z,38.08
2022-09-11T01:06:05.170Z,38.02
2022-09-11T01:08:36.460Z,38.34
2022-09-11T01:11:08.724Z,38.22
2022-09-11T01:13:56.202Z,38.14
2022-09-11T01:16:30.029Z,38.17
2022-09-11T01:19:01.144Z,38.06
2022-09-11T01:21:52.406Z,38.08
2022-09-11T01:24:23.826Z,37.99
2022-09-11T01:26:59.278Z,38.36
2022-09-11T01:29:26.269Z,38.53
2022-09-11T01:31:57.891Z,38.03
2022-09-11T01:34:29.560Z,38.40
2022-09-11T01:36:58.192Z,38.73
2022-09-11T01:39:25.886Z,38.92
2022-09-11T01:41:56.509Z,39.12
2022-09-11T01:44:26.253Z,39.58
2022-09-11T01:46:53.786Z,39.32
2022-09-11T01:49:27.840Z,39.26
2022-09-11T01:51:59.298Z,39.30
2022-09-11T01:54:27.263Z,39.60
2022-09-11T01:57:00.281Z,39.95
2022-09-11T01:59:30.276Z,39.60
2022-09-11T02:02:02.983Z,39.66
2022-09-11T02:04:31.182Z,39.78
2022-09-11T02:07:04.015Z,40.15
2022-09-11T02:09:36.258Z,40.27
2022-09-11T02:12:03.535Z,40.21
2022-09-11T02:14:32.383Z,40.81
2022-09-11T02:17:08.880Z,40.53
2022-09-11T02:19:41.211Z,40.66
2022-09-11T02:22:08.286Z,40.50
2022-09-11T02:24:36.451Z,40.54
2022-09-11T02:27:07.198Z,40.95
2022-09-11T02:29:34.733Z,40.59
2022-09-11T02:32:03.795Z,40.78
2022-09-11T02:34:32.738Z,40.92
2022-09-11T02:37:08.615Z,40.44
2022-09-11T02:39:56.046Z,40.52
2022-09-11T02:42:27.320Z,40.61
2022-09-11T02:44:58.788Z,40.12
2022-09-11T02:47:31.231Z,40.40
2022-09-11T02:50:18.407Z,40.52
2022-09-11T02:53:02.568Z,40.92
2022-09-11T02:55:32.113Z,41.22
2022-09-11T02:58:10.112Z,41.56
2022-09-11T03:00:37.674Z,41.50
2022-09-11T03:03:04.752Z,40.94
2022-09-11T03:05:32.142Z,40.91
2022-09-11T03:07:59.771Z,41.43
2022-09-11T03:10:27.700Z,41.43
2022-09-11T03:12:55.466Z,41.83
2022-09-11T03:15:23.664Z,42.16
2022-09-11T03:17:50.732Z,41.70
2022-09-11T03:20:17.881Z,41.77
2022-09-11T03:22:45.190Z,41.96
2022-09-11T03:25:12.258Z,42.05
2022-09-11T03:27:39.584Z,41.90
2022-09-11T03:30:07.067Z,42.17
2022-09-11T03:32:34.542Z,42.03
2022-09-11T03:35:02.481Z,42.21
2022-09-11T03:37:29.871Z,42.58
2022-09-11T03:39:56.973Z,41.91
2022-09-11T03:42:24.093Z,42.03
2022-09-11T03:44:51.379Z,41.90
2022-09-11T03:47:20.449Z,41.97
2022-09-11T03:49:48.533Z,42.22
2022-09-11T03:52:15.556Z,42.22
2022-09-11T03:54:44.116Z,42.83
2022-09-11T03:57:11.169Z,42.66
2022-09-11T03:59:39.249Z,43.21
2022-09-11T04:02:06.320Z,42.95
2022-09-11T04:04:34.524Z,43.17
2022-09-11T04:07:01.582Z,43.26
2022-09-11T04:09:28.707Z,42.87
2022-09-11T04:11:55.783Z,43.14
2022-09-11T04:14:22.863Z,43.46
2022-09-11T04:16:50.106Z,42.45
2022-09-11T04:19:18.833Z,43.38
2022-09-11T04:21:45.894Z,43.03
2022-09-11T04:24:12.992Z,43.72
2022-09-11T04:26:40.067Z,43.36
2022-09-11T04:29:07.139Z,44.21
2022-09-11T04:31:38.414Z,43.55
2022-09-11T04:34:05.564Z,43.15
2022-09-11T04:36:33.111Z,43.31
2022-09-11T04:39:03.097Z,43.30
2022-09-11T04:41:30.867Z,43.15
2022-09-11T04:44:02.393Z,44.05
2022-09-11T04:46:33.530Z,42.89
2022-09-11T04:49:02.256Z,43.79
2022-09-11T04:51:30.450Z,43.89
2022-09-11T04:53:57.975Z,44.25
2022-09-11T04:56:25.768Z,44.44
2022-09-11T04:58:54.175Z,44.51
2022-09-11T05:01:21.427Z,43.80
2022-09-11T05:03:48.503Z,43.81
2022-09-11T05:06:16.424Z,44.10
2022-09-11T05:08:44.693Z,45.11
2022-09-11T05:11:13.515Z,45.59
2022-09-11T05:13:41.037Z,45.96
2022-09-11T05:16:09.395Z,44.91
2022-09-11T05:18:37.078Z,44.35
2022-09-11T05:21:06.233Z,44.05
2022-09-11T05:23:35.013Z,43.14
2022-09-11T05:26:02.477Z,42.61
2022-09-11T05:28:29.634Z,42.83
2022-09-11T05:30:56.735Z,43.43
2022-09-11T05:33:24.795Z,43.05
2022-09-11T05:35:52.316Z,42.72
2022-09-11T05:38:19.539Z,43.00
2022-09-11T05:40:48.388Z,43.25
2022-09-11T05:43:19.764Z,43.54
2022-09-11T05:45:53.844Z,43.61
2022-09-11T05:48:21.069Z,42.26
2022-09-11T05:50:59.579Z,42.93
2022-09-11T05:53:27.686Z,43.88
2022-09-11T05:55:55.254Z,43.08
2022-09-11T05:58:22.942Z,43.76
2022-09-11T06:00:50.035Z,44.67
2022-09-11T06:03:17.583Z,44.00
2022-09-11T06:05:44.880Z,43.68
2022-09-11T06:08:11.999Z,43.55
2022-09-11T06:10:49.012Z,44.29
2022-09-11T06:13:17.957Z,44.35
2022-09-11T06:15:49.103Z,44.04
2022-09-11T06:18:16.267Z,44.49
2022-09-11T06:20:43.555Z,44.77
2022-09-11T06:23:10.723Z,44.56
2022-09-11T06:25:39.185Z,43.21
2022-09-11T06:28:06.273Z,42.37
2022-09-11T06:30:33.954Z,42.56
2022-09-11T06:33:01.242Z,42.52
2022-09-11T06:35:28.862Z,43.03
2022-09-11T06:37:55.904Z,44.19
2022-09-11T06:40:24.663Z,43.21
2022-09-11T06:42:52.065Z,43.35
2022-09-11T06:45:19.264Z,42.99
2022-09-11T06:47:47.356Z,41.39
2022-09-11T06:50:14.606Z,42.94
2022-09-11T06:52:42.952Z,42.46
2022-09-11T06:55:13.502Z,42.60
2022-09-11T06:57:42.164Z,43.04
2022-09-11T07:00:10.535Z,43.46
2022-09-11T07:02:38.145Z,43.39
2022-09-11T07:05:05.734Z,44.08
2022-09-11T07:07:34.004Z,44.16
2022-09-11T07:10:02.894Z,45.55
2022-09-11T07:12:31.125Z,44.61
2022-09-11T07:14:58.744Z,44.56
2022-09-11T07:17:25.794Z,44.45
2022-09-11T07:19:52.849Z,44.81
2022-09-11T07:22:20.109Z,44.56
2022-09-11T07:24:47.312Z,44.37
2022-09-11T07:27:14.366Z,42.82
2022-09-11T07:29:41.769Z,44.32
2022-09-11T07:32:08.870Z,43.88
2022-09-11T07:34:35.978Z,45.05
2022-09-11T07:37:03.057Z,43.59
2022-09-11T07:39:30.121Z,46.38
2022-09-11T07:41:57.363Z,44.26
2022-09-11T07:44:24.396Z,44.77
2022-09-11T07:46:51.564Z,43.93
2022-09-11T07:49:18.701Z,44.40
2022-09-11T07:51:46.323Z,43.78
2022-09-11T07:54:13.371Z,42.84
2022-09-11T07:56:41.739Z,44.14
2022-09-11T07:59:08.835Z,42.64
2022-09-11T08:01:35.910Z,43.67
2022-09-11T08:04:04.638Z,44.21
2022-09-11T08:06:33.010Z,43.38
2022-09-11T08:09:01.744Z,44.16
2022-09-11T08:11:29.198Z,46.12
2022-09-11T08:13:56.454Z,46.68
2022-09-11T08:16:24.742Z,47.01
2022-09-11T08:18:52.196Z,46.81
2022-09-11T08:21:19.397Z,46.83
2022-09-11T08:23:46.570Z,47.44
2022-09-11T08:26:18.754Z,46.19
2022-09-11T08:28:45.876Z,45.31
2022-09-11T08:31:13.090Z,46.00
2022-09-11T08:33:40.608Z,44.56
2022-09-11T08:36:09.281Z,44.58
2022-09-11T08:38:38.137Z,45.03
2022-09-11T08:41:17.463Z,45.20
2022-09-11T08:43:46.110Z,45.66
2022-09-11T08:46:13.137Z,44.29
2022-09-11T08:48:40.186Z,44.79
2022-09-11T08:51:08.985Z,45.17
2022-09-11T08:53:36.954Z,45.08
2022-09-11T08:56:05.868Z,45.06
2022-09-11T08:58:36.609Z,45.96
2022-09-11T09:01:04.192Z,45.82
2022-09-11T09:03:35.010Z,47.43
2022-09-11T09:06:08.659Z,52.70
2022-09-11T09:08:45.927Z,51.86
2022-09-11T09:11:13.954Z,55.54
2022-09-11T09:13:54.536Z,59.64
2022-09-11T09:16:42.429Z,62.18
2022-09-11T09:19:18.610Z,63.77
2022-09-11T09:21:48.583Z,69.11
2022-09-11T09:24:19.490Z,67.31
2022-09-11T09:26:54.257Z,65.78
2022-09-11T09:29:24.785Z,70.13
2022-09-11T09:31:53.446Z,73.75
2022-09-11T09:34:21.894Z,75.18
2022-09-11T09:37:05.289Z,76.13
2022-09-11T09:39:32.409Z,75.36
2022-09-11T09:42:08.709Z,77.55
2022-09-11T09:44:35.798Z,77.91
2022-09-11T09:47:02.878Z,73.52
2022-09-11T09:49:31.212Z,76.56
2022-09-11T09:52:04.524Z,74.13
2022-09-11T09:54:33.956Z,77.95
2022-09-11T09:57:02.575Z,78.41
2022-09-11T09:59:34.460Z,78.46
2022-09-11T10:02:01.798Z,79.56
2022-09-11T10:04:30.349Z,79.79
2022-09-11T10:07:11.049Z,79.22
2022-09-11T10:09:48.600Z,80.22
2022-09-11T10:12:22.654Z,81.46
2022-09-11T10:14:57.083Z,80.55
2022-09-11T10:17:29.292Z,81.20
2022-09-11T10:19:57.789Z,80.09
2022-09-11T10:22:26.022Z,81.35
2022-09-11T10:24:59.461Z,78.93
2022-09-11T10:27:29.037Z,79.24
2022-09-11T10:29:56.275Z,78.02
2022-09-11T10:32:24.668Z,80.00
2022-09-11T10:34:51.741Z,78.87
2022-09-11T10:37:29.906Z,75.11
2022-09-11T10:40:05.926Z,77.76
2022-09-11T10:42:35.109Z,76.62
2022-09-11T10:45:08.647Z,78.32
2022-09-11T10:47:37.337Z,78.63
2022-09-11T10:50:13.049Z,77.13
2022-09-11T10:53:07.217Z,78.31
2022-09-11T10:55:35.504Z,78.29
2022-09-11T10:58:07.759Z,79.05
2022-09-11T11:00:35.889Z,77.11
2022-09-11T11:03:04.255Z,77.43
2022-09-11T11:05:32.334Z,75.70
2022-09-11T11:08:17.586Z,73.70
2022-09-11T11:10:50.971Z,74.47
2022-09-11T11:13:37.237Z,72.92
2022-09-11T11:16:04.442Z,70.71
2022-09-11T11:18:34.267Z,68.80
2022-09-11T11:21:33.879Z,68.92
2022-09-11T11:24:01.051Z,71.07
2022-09-11T11:26:40.229Z,70.96
2022-09-11T11:29:16.275Z,69.36
2022-09-11T11:31:44.441Z,71.50
2022-09-11T11:34:27.315Z,69.48
2022-09-11T11:37:10.907Z,70.36
2022-09-11T11:39:48.094Z,72.31
2022-09-11T11:42:23.345Z,72.49
2022-09-11T11:44:52.378Z,73.20
2022-09-11T11:47:20.304Z,72.66
2022-09-11T11:49:56.806Z,70.85
2022-09-11T11:52:23.822Z,72.44
2022-09-11T11:54:53.962Z,71.20
2022-09-11T11:57:22.335Z,72.94
2022-09-11T12:00:04.266Z,74.18
2022-09-11T12:02:34.924Z,73.54
2022-09-11T12:05:03.433Z,74.58
2022-09-11T12:07:31.447Z,70.89
2022-09-11T12:10:02.596Z,70.73
2022-09-11T12:12:33.885Z,73.37
2022-09-11T12:15:05.009Z,74.70
2022-09-11T12:17:36.826Z,70.31
2022-09-11T12:20:10.648Z,68.48
2022-09-11T12:22:39.400Z,70.67
2022-09-11T12:25:18.555Z,68.29
2022-09-11T12:27:48.879Z,71.37
2022-09-11T12:30:15.895Z,71.36
2022-09-11T12:33:00.009Z,67.47
2022-09-11T12:35:30.118Z,68.76
2022-09-11T12:38:03.103Z,68.73
2022-09-11T12:40:39.016Z,67.28
2022-09-11T12:43:19.108Z,68.58
2022-09-11T12:45:48.454Z,67.51
2022-09-11T12:48:16.690Z,69.68
2022-09-11T12:50:54.275Z,71.94
2022-09-11T12:53:23.643Z,71.59
2022-09-11T12:55:55.304Z,67.16
2022-09-11T12:58:25.427Z,66.45
2022-09-11T13:01:03.143Z,63.34
2022-09-11T13:03:31.209Z,62.39
2022-09-11T13:06:00.114Z,62.95
2022-09-11T13:08:27.747Z,60.72
2022-09-11T13:11:15.472Z,57.11
2022-09-11T13:13:43.894Z,51.31
2022-09-11T13:16:17.443Z,46.70
2022-09-11T13:18:45.490Z,45.79
2022-09-11T13:21:13.655Z,41.50
2022-09-11T13:23:42.912Z,41.12
2022-09-11T13:26:15.898Z,42.80
2022-09-11T13:28:44.255Z,39.84
2022-09-11T13:31:19.541Z,33.99
2022-09-11T13:33:49.572Z,34.81
2022-09-11T13:36:16.864Z,33.58
2022-09-11T13:38:44.021Z,31.09
2022-09-11T13:41:15.046Z,35.12
2022-09-11T13:43:46.288Z,34.28
2022-09-11T13:46:16.514Z,37.42
2022-09-11T13:48:43.902Z,42.31
2022-09-11T13:51:14.702Z,43.21
2022-09-11T13:53:41.787Z,41.82
2022-09-11T13:56:28.056Z,45.01
2022-09-11T13:58:55.160Z,43.75
2022-09-11T14:01:22.457Z,47.20
2022-09-11T14:03:49.528Z,44.84
2022-09-11T14:06:18.940Z,49.62
2022-09-11T14:08:50.017Z,45.83
2022-09-11T14:11:21.517Z,50.42
2022-09-11T14:13:49.765Z,56.93
2022-09-11T14:16:17.130Z,55.18
2022-09-11T14:18:52.850Z,51.66
2022-09-11T14:21:22.936Z,51.36
2022-09-11T14:23:56.891Z,51.19
2022-09-11T14:26:24.397Z,47.44
2022-09-11T14:28:51.452Z,42.60
2022-09-11T14:31:30.658Z,43.38
2022-09-11T14:34:12.407Z,43.16
2022-09-11T14:36:41.740Z,43.61
2022-09-11T14:39:17.104Z,41.96
2022-09-11T14:41:45.009Z,44.18
2022-09-11T14:44:13.189Z,42.38
2022-09-11T14:46:40.249Z,40.53
2022-09-11T14:49:09.571Z,40.86
2022-09-11T14:51:37.863Z,41.05
2022-09-11T14:54:05.455Z,42.03
2022-09-11T14:56:32.881Z,41.00
2022-09-11T14:58:59.942Z,40.56
2022-09-11T15:01:27.216Z,41.76
2022-09-11T15:03:54.953Z,42.76
2022-09-11T15:06:22.076Z,41.11
2022-09-11T15:08:52.225Z,39.96
2022-09-11T15:11:20.197Z,40.21
2022-09-11T15:14:13.348Z,41.41
2022-09-11T15:16:36.574Z,40.63
2022-09-11T15:19:03.625Z,44.60
2022-09-11T15:21:36.780Z,41.27
2022-09-11T15:24:05.295Z,41.34
2022-09-11T15:26:37.266Z,45.67
2022-09-11T15:29:09.909Z,51.81
2022-09-11T15:31:37.646Z,57.66
2022-09-11T15:34:05.800Z,50.84
2022-09-11T15:36:33.438Z,53.05
2022-09-11T15:39:00.501Z,47.98
2022-09-11T15:41:28.141Z,46.31
2022-09-11T15:43:55.307Z,48.19
2022-09-11T15:46:22.764Z,49.23
2022-09-11T15:48:50.166Z,53.36
2022-09-11T15:51:18.083Z,56.40
2022-09-11T15:53:45.451Z,53.91
2022-09-11T15:56:13.476Z,49.64
2022-09-11T15:58:41.646Z,48.98
2022-09-11T16:01:18.513Z,52.06
2022-09-11T16:03:49.661Z,50.77
2022-09-11T16:06:16.697Z,53.37
2022-09-11T16:08:44.402Z,50.92
2022-09-11T16:11:12.129Z,57.68
2022-09-11T16:13:40.609Z,58.74
2022-09-11T16:16:07.957Z,52.29
2022-09-11T16:18:37.463Z,57.48
2022-09-11T16:21:04.935Z,64.76
2022-09-11T16:23:31.963Z,65.76
2022-09-11T16:26:01.892Z,68.58
2022-09-11T16:28:29.071Z,68.00
2022-09-11T16:30:56.274Z,70.05
2022-09-11T16:33:24.218Z,70.39
2022-09-11T16:35:58.501Z,70.20
2022-09-11T16:38:25.589Z,70.48
2022-09-11T16:41:00.235Z,70.57
2022-09-11T16:43:27.555Z,71.25
2022-09-11T16:45:54.738Z,71.75
2022-09-11T16:48:21.891Z,72.04
2022-09-11T16:50:53.450Z,72.53
2022-09-11T16:53:21.231Z,72.08
2022-09-11T16:55:48.546Z,72.93
2022-09-11T16:58:16.222Z,72.14
2022-09-11T17:00:43.771Z,72.80
2022-09-11T17:03:10.869Z,72.83
2022-09-11T17:05:38.022Z,73.63
2022-09-11T17:08:05.156Z,74.63
2022-09-11T17:10:34.964Z,74.64
2022-09-11T17:13:03.170Z,75.15
2022-09-11T17:15:34.091Z,75.22
2022-09-11T17:18:01.203Z,74.98
2022-09-11T17:20:28.372Z,75.41
2022-09-11T17:22:58.054Z,75.90
2022-09-11T17:25:25.878Z,75.74
2022-09-11T17:27:53.087Z,75.87
2022-09-11T17:30:21.412Z,75.60
2022-09-11T17:32:48.620Z,75.37
2022-09-11T17:35:15.758Z,75.69
2022-09-11T17:37:42.879Z,76.20
2022-09-11T17:40:10.910Z,76.19
2022-09-11T17:42:37.985Z,76.11
2022-09-11T17:45:05.848Z,76.47
2022-09-11T17:47:33.175Z,76.82
2022-09-11T17:50:01.531Z,76.14
2022-09-11T17:52:29.596Z,76.27
2022-09-11T17:54:56.768Z,76.17
2022-09-11T17:57:25.562Z,76.18
2022-09-11T17:59:53.085Z,75.87
2022-09-11T18:02:21.450Z,76.43
2022-09-11T18:04:48.601Z,76.56
2022-09-11T18:07:15.868Z,76.71
2022-09-11T18:09:42.909Z,76.41
2022-09-11T18:12:11.359Z,76.88
2022-09-11T18:14:40.443Z,76.73
2022-09-11T18:17:07.705Z,76.80
2022-09-11T18:19:34.916Z,76.36
2022-09-11T18:22:02.006Z,76.18
2022-09-11T18:24:29.997Z,76.95
2022-09-11T18:27:00.757Z,76.06
2022-09-11T18:29:30.163Z,75.61
2022-09-11T18:31:57.649Z,75.74
2022-09-11T18:34:25.525Z,75.92
2022-09-11T18:36:52.722Z,76.18
2022-09-11T18:39:21.118Z,75.90
2022-09-11T18:41:49.667Z,76.30
2022-09-11T18:44:19.969Z,77.04
2022-09-11T18:46:47.710Z,77.19
2022-09-11T18:49:14.958Z,77.25
2022-09-11T18:51:45.183Z,76.75
2022-09-11T18:54:15.908Z,77.50
2022-09-11T18:56:42.938Z,77.39
2022-09-11T18:59:11.257Z,77.37
2022-09-11T19:01:40.042Z,76.85
2022-09-11T19:04:07.896Z,77.50
2022-09-11T19:06:35.210Z,77.54
2022-09-11T19:09:02.583Z,77.49
2022-09-11T19:11:30.054Z,77.44
2022-09-11T19:14:02.011Z,77.53
2022-09-11T19:16:29.671Z,77.98
2022-09-11T19:18:56.861Z,77.54
2022-09-11T19:21:24.140Z,77.60
2022-09-11T19:23:53.722Z,78.24
2022-09-11T19:26:52.194Z,77.62
2022-09-11T19:29:21.233Z,76.73
2022-09-11T19:31:48.350Z,77.51
2022-09-11T19:34:15.528Z,78.32
2022-09-11T19:36:42.863Z,78.09
2022-09-11T19:39:10.033Z,78.37
2022-09-11T19:41:37.948Z,78.58
2022-09-11T19:44:05.800Z,78.68
2022-09-11T19:46:33.617Z,78.67
2022-09-11T19:49:02.979Z,79.07
2022-09-11T19:51:31.960Z,79.48
2022-09-11T19:54:00.499Z,78.87
2022-09-11T19:56:27.862Z,79.17
2022-09-11T19:58:55.532Z,78.47
2022-09-11T20:01:23.255Z,78.96
2022-09-11T20:03:51.000Z,78.72
2022-09-11T20:06:18.592Z,79.12
2022-09-11T20:08:46.918Z,78.99
2022-09-11T20:11:15.610Z,78.86
2022-09-11T20:13:43.199Z,77.96
2022-09-11T20:16:12.444Z,78.50
2022-09-11T20:18:39.606Z,78.98
2022-09-11T20:21:07.481Z,78.67
2022-09-11T20:23:34.819Z,78.90
2022-09-11T20:26:16.398Z,78.24
2022-09-11T20:28:46.920Z,77.39
2022-09-11T20:31:14.265Z,77.14
2022-09-11T20:33:41.722Z,77.87
2022-09-11T20:36:09.034Z,77.74
2022-09-11T20:38:36.110Z,78.11
2022-09-11T20:41:06.993Z,78.35
2022-09-11T20:43:34.133Z,78.74
2022-09-11T20:46:03.517Z,77.92
2022-09-11T20:48:30.669Z,78.31
2022-09-11T20:51:01.481Z,77.88
2022-09-11T20:53:28.572Z,78.78
2022-09-11T20:56:00.527Z,77.98
2022-09-11T20:58:27.616Z,79.12
2022-09-11T21:00:55.261Z,78.81
2022-09-11T21:03:23.212Z,78.13
2022-09-11T21:05:50.372Z,79.40
2022-09-11T21:08:17.622Z,79.14
2022-09-11T21:10:45.127Z,79.92
2022-09-11T21:13:12.368Z,79.92
2022-09-11T21:15:43.435Z,79.51
2022-09-11T21:18:12.670Z,79.19
2022-09-11T21:20:40.314Z,80.01
2022-09-11T21:23:07.530Z,80.04
2022-09-11T21:25:39.797Z,80.34
2022-09-11T21:28:06.924Z,80.06
2022-09-11T21:30:37.262Z,80.24
2022-09-11T21:33:04.441Z,80.08
2022-09-11T21:35:31.532Z,80.54
2022-09-11T21:37:58.594Z,80.48
2022-09-11T21:40:25.624Z,80.38
2022-09-11T21:42:52.827Z,80.34
2022-09-11T21:45:20.151Z,80.39
2022-09-11T21:47:47.218Z,80.46
2022-09-11T21:50:14.294Z,80.28
2022-09-11T21:52:42.097Z,80.58
2022-09-11T21:55:09.255Z,80.06
2022-09-11T21:57:36.289Z,79.89
2022-09-11T22:00:03.705Z,80.53
2022-09-11T22:02:30.828Z,79.93
2022-09-11T22:04:57.847Z,79.73
2022-09-11T22:07:24.874Z,79.84
2022-09-11T22:09:53.537Z,80.35
2022-09-11T22:12:20.554Z,80.67
2022-09-11T22:14:50.962Z,80.52
2022-09-11T22:17:18.038Z,80.74
2022-09-11T22:19:45.832Z,80.91
2022-09-11T22:22:13.212Z,80.72
2022-09-11T22:24:40.656Z,80.66
2022-09-11T22:27:08.046Z,80.71
2022-09-11T22:29:35.490Z,81.01
2022-09-11T22:32:02.915Z,81.23
2022-09-11T22:34:32.061Z,81.64
2022-09-11T22:36:59.119Z,81.94
2022-09-11T22:39:26.280Z,81.78
2022-09-11T22:41:53.462Z,81.30
2022-09-11T22:44:20.905Z,81.16
2022-09-11T22:46:48.893Z,80.98
2022-09-11T22:49:16.099Z,81.50
2022-09-11T22:51:43.159Z,81.81
2022-09-11T22:54:12.293Z,81.00
2022-09-11T22:56:39.339Z,80.85
2022-09-11T22:59:06.442Z,81.68
2022-09-11T23:01:34.424Z,81.78
2022-09-11T23:04:01.557Z,81.72
2022-09-11T23:06:48.310Z,81.22
2022-09-11T23:09:18.404Z,81.15
2022-09-11T23:11:46.207Z,82.18
2022-09-11T23:14:14.664Z,82.16
2022-09-11T23:16:42.020Z,82.03
2022-09-11T23:19:10.669Z,81.90
2022-09-11T23:21:37.743Z,81.38
2022-09-11T23:24:09.124Z,82.14
2022-09-11T23:26:36.937Z,82.03
2022-09-11T23:29:04.410Z,82.04
2022-09-11T23:31:32.574Z,82.03
2022-09-11T23:34:00.946Z,82.07
2022-09-11T23:36:28.569Z,82.38
2022-09-11T23:38:56.067Z,82.07
2022-09-11T23:41:23.215Z,82.04
2022-09-11T23:43:50.432Z,81.92
2022-09-11T23:46:17.555Z,81.94
2022-09-11T23:48:44.805Z,82.10
2022-09-11T23:51:12.171Z,81.86
2022-09-11T23:53:40.180Z,82.02
2022-09-11T23:56:07.237Z,81.82
2022-09-11T23:58:39.218Z,81.51
